sensor_id;sensor_type;location;lat;lon;timestamp;P1;durP1;ratioP1;P2;durP2;ratioP2
12328;SDS011;6230;52.390;10.256;2022-10-16T00:01:11;2.90;;;2.70;;
12328;SDS011;6230;52.390;10.256;2022-10-16T00:03:39;4.13;;;2.92;;
12328;SDS011;6230;52.390;10.256;2022-10-16T00:06:05;4.10;;;3.25;;
12328;SDS011;6230;52.390;10.256;2022-10-16T00:08:32;3.35;;;3.05;;
12328;SDS011;6230;52.390;10.256;2022-10-16T00:10:59;4.68;;;3.05;;
12328;SDS011;6230;52.390;10.256;2022-10-16T00:13:30;3.40;;;3.10;;
12328;SDS011;6230;52.390;10.256;2022-10-16T00:15:56;4.35;;;4.03;;
12328;SDS011;6230;52.390;10.256;2022-10-16T00:18:23;4.47;;;4.07;;
12328;SDS011;6230;52.390;10.256;2022-10-16T00:20:49;4.22;;;3.90;;
12328;SDS011;6230;52.390;10.256;2022-10-16T00:23:15;4.82;;;3.58;;
12328;SDS011;6230;52.390;10.256;2022-10-16T00:25:40;5.95;;;3.72;;
12328;SDS011;6230;52.390;10.256;2022-10-16T00:28:06;5.47;;;4.68;;
12328;SDS011;6230;52.390;10.256;2022-10-16T00:30:31;4.53;;;4.03;;
12328;SDS011;6230;52.390;10.256;2022-10-16T00:32:57;5.05;;;4.63;;
12328;SDS011;6230;52.390;10.256;2022-10-16T00:35:22;4.45;;;4.10;;
12328;SDS011;6230;52.390;10.256;2022-10-16T00:37:48;5.40;;;5.00;;
12328;SDS011;6230;52.390;10.256;2022-10-16T00:40:14;5.68;;;4.72;;
12328;SDS011;6230;52.390;10.256;2022-10-16T00:42:39;5.75;;;4.78;;
12328;SDS011;6230;52.390;10.256;2022-10-16T00:45:05;7.22;;;4.97;;
12328;SDS011;6230;52.390;10.256;2022-10-16T00:47:35;4.78;;;4.47;;
12328;SDS011;6230;52.390;10.256;2022-10-16T00:50:18;5.57;;;5.10;;
12328;SDS011;6230;52.390;10.256;2022-10-16T00:52:48;3.50;;;2.80;;
12328;SDS011;6230;52.390;10.256;2022-10-16T00:55:16;5.75;;;5.05;;
12328;SDS011;6230;52.390;10.256;2022-10-16T00:57:42;5.90;;;4.60;;
12328;SDS011;6230;52.390;10.256;2022-10-16T01:00:10;5.45;;;4.95;;
12328;SDS011;6230;52.390;10.256;2022-10-16T01:02:38;6.45;;;4.88;;
12328;SDS011;6230;52.390;10.256;2022-10-16T01:05:04;5.50;;;5.20;;
12328;SDS011;6230;52.390;10.256;2022-10-16T01:13:07;2.35;;;2.13;;
12328;SDS011;6230;52.390;10.256;2022-10-16T01:20:34;4.38;;;3.95;;
12328;SDS011;6230;52.390;10.256;2022-10-16T01:23:09;3.60;;;3.30;;
12328;SDS011;6230;52.390;10.256;2022-10-16T01:28:39;3.13;;;2.92;;
12328;SDS011;6230;52.390;10.256;2022-10-16T01:31:17;4.60;;;2.92;;
12328;SDS011;6230;52.390;10.256;2022-10-16T01:33:48;4.47;;;2.97;;
12328;SDS011;6230;52.390;10.256;2022-10-16T01:36:21;4.03;;;3.60;;
12328;SDS011;6230;52.390;10.256;2022-10-16T01:38:52;2.70;;;2.50;;
12328;SDS011;6230;52.390;10.256;2022-10-16T01:41:21;3.28;;;3.08;;
12328;SDS011;6230;52.390;10.256;2022-10-16T01:43:54;4.40;;;3.00;;
12328;SDS011;6230;52.390;10.256;2022-10-16T01:46:26;4.28;;;3.22;;
12328;SDS011;6230;52.390;10.256;2022-10-16T01:48:53;3.20;;;3.00;;
12328;SDS011;6230;52.390;10.256;2022-10-16T01:51:20;4.80;;;2.90;;
12328;SDS011;6230;52.390;10.256;2022-10-16T01:53:49;3.15;;;2.70;;
12328;SDS011;6230;52.390;10.256;2022-10-16T01:56:17;2.85;;;2.65;;
12328;SDS011;6230;52.390;10.256;2022-10-16T01:58:48;4.15;;;3.22;;
12328;SDS011;6230;52.390;10.256;2022-10-16T02:01:20;3.53;;;3.17;;
12328;SDS011;6230;52.390;10.256;2022-10-16T02:03:49;2.80;;;2.60;;
12328;SDS011;6230;52.390;10.256;2022-10-16T02:06:18;8.60;;;3.33;;
12328;SDS011;6230;52.390;10.256;2022-10-16T02:08:45;3.70;;;3.40;;
12328;SDS011;6230;52.390;10.256;2022-10-16T02:11:11;6.23;;;3.30;;
12328;SDS011;6230;52.390;10.256;2022-10-16T02:13:50;3.22;;;3.00;;
12328;SDS011;6230;52.390;10.256;2022-10-16T02:16:32;4.70;;;3.47;;
12328;SDS011;6230;52.390;10.256;2022-10-16T02:19:05;5.60;;;3.38;;
12328;SDS011;6230;52.390;10.256;2022-10-16T02:21:33;4.15;;;3.75;;
12328;SDS011;6230;52.390;10.256;2022-10-16T02:24:13;3.70;;;3.40;;
12328;SDS011;6230;52.390;10.256;2022-10-16T02:27:04;4.00;;;3.60;;
12328;SDS011;6230;52.390;10.256;2022-10-16T02:29:48;3.47;;;3.17;;
12328;SDS011;6230;52.390;10.256;2022-10-16T02:32:22;5.03;;;3.60;;
12328;SDS011;6230;52.390;10.256;2022-10-16T02:34:49;4.80;;;3.63;;
12328;SDS011;6230;52.390;10.256;2022-10-16T02:37:16;4.03;;;3.23;;
12328;SDS011;6230;52.390;10.256;2022-10-16T02:39:43;3.35;;;3.15;;
12328;SDS011;6230;52.390;10.256;2022-10-16T02:42:12;3.40;;;3.20;;
12328;SDS011;6230;52.390;10.256;2022-10-16T02:44:38;4.60;;;3.53;;
12328;SDS011;6230;52.390;10.256;2022-10-16T02:47:04;3.88;;;3.50;;
12328;SDS011;6230;52.390;10.256;2022-10-16T02:49:30;4.63;;;4.22;;
12328;SDS011;6230;52.390;10.256;2022-10-16T02:51:55;3.67;;;3.37;;
12328;SDS011;6230;52.390;10.256;2022-10-16T02:54:21;3.50;;;3.20;;
12328;SDS011;6230;52.390;10.256;2022-10-16T02:56:46;3.83;;;3.45;;
12328;SDS011;6230;52.390;10.256;2022-10-16T02:59:12;3.72;;;3.42;;
12328;SDS011;6230;52.390;10.256;2022-10-16T03:01:37;3.72;;;3.35;;
12328;SDS011;6230;52.390;10.256;2022-10-16T03:04:03;3.70;;;3.40;;
12328;SDS011;6230;52.390;10.256;2022-10-16T03:06:28;6.63;;;3.58;;
12328;SDS011;6230;52.390;10.256;2022-10-16T03:08:54;4.05;;;3.67;;
12328;SDS011;6230;52.390;10.256;2022-10-16T03:11:19;5.40;;;3.77;;
12328;SDS011;6230;52.390;10.256;2022-10-16T03:13:45;4.53;;;3.70;;
12328;SDS011;6230;52.390;10.256;2022-10-16T03:16:11;4.60;;;3.80;;
12328;SDS011;6230;52.390;10.256;2022-10-16T03:18:36;3.38;;;3.17;;
12328;SDS011;6230;52.390;10.256;2022-10-16T03:21:02;6.93;;;3.83;;
12328;SDS011;6230;52.390;10.256;2022-10-16T03:23:27;3.60;;;3.30;;
12328;SDS011;6230;52.390;10.256;2022-10-16T03:25:53;4.37;;;3.70;;
12328;SDS011;6230;52.390;10.256;2022-10-16T03:28:19;4.97;;;3.90;;
12328;SDS011;6230;52.390;10.256;2022-10-16T03:30:44;3.97;;;3.67;;
12328;SDS011;6230;52.390;10.256;2022-10-16T03:33:10;6.23;;;4.00;;
12328;SDS011;6230;52.390;10.256;2022-10-16T03:35:35;4.10;;;3.70;;
12328;SDS011;6230;52.390;10.256;2022-10-16T03:38:01;4.10;;;3.80;;
12328;SDS011;6230;52.390;10.256;2022-10-16T03:40:27;3.77;;;3.40;;
12328;SDS011;6230;52.390;10.256;2022-10-16T03:42:52;3.67;;;3.38;;
12328;SDS011;6230;52.390;10.256;2022-10-16T03:45:22;4.17;;;3.77;;
12328;SDS011;6230;52.390;10.256;2022-10-16T03:47:47;4.53;;;3.57;;
12328;SDS011;6230;52.390;10.256;2022-10-16T03:50:13;4.83;;;3.60;;
12328;SDS011;6230;52.390;10.256;2022-10-16T03:52:38;4.03;;;3.63;;
12328;SDS011;6230;52.390;10.256;2022-10-16T03:55:04;5.20;;;3.60;;
12328;SDS011;6230;52.390;10.256;2022-10-16T03:57:30;4.63;;;4.23;;
12328;SDS011;6230;52.390;10.256;2022-10-16T03:59:56;5.20;;;4.10;;
12328;SDS011;6230;52.390;10.256;2022-10-16T04:02:21;4.13;;;3.73;;
12328;SDS011;6230;52.390;10.256;2022-10-16T04:04:47;5.57;;;3.80;;
12328;SDS011;6230;52.390;10.256;2022-10-16T04:07:12;3.87;;;3.57;;
12328;SDS011;6230;52.390;10.256;2022-10-16T04:09:38;5.10;;;3.83;;
12328;SDS011;6230;52.390;10.256;2022-10-16T04:12:03;5.23;;;3.73;;
12328;SDS011;6230;52.390;10.256;2022-10-16T04:14:29;4.00;;;3.70;;
12328;SDS011;6230;52.390;10.256;2022-10-16T04:16:54;4.20;;;3.80;;
12328;SDS011;6230;52.390;10.256;2022-10-16T04:19:20;3.77;;;3.47;;
12328;SDS011;6230;52.390;10.256;2022-10-16T04:21:45;5.37;;;4.00;;
12328;SDS011;6230;52.390;10.256;2022-10-16T04:24:11;4.90;;;4.03;;
12328;SDS011;6230;52.390;10.256;2022-10-16T04:26:37;4.47;;;3.70;;
12328;SDS011;6230;52.390;10.256;2022-10-16T04:29:02;5.80;;;3.88;;
12328;SDS011;6230;52.390;10.256;2022-10-16T04:31:28;5.27;;;3.97;;
12328;SDS011;6230;52.390;10.256;2022-10-16T04:33:54;5.27;;;3.87;;
12328;SDS011;6230;52.390;10.256;2022-10-16T04:36:19;6.33;;;3.90;;
12328;SDS011;6230;52.390;10.256;2022-10-16T04:38:45;5.07;;;3.97;;
12328;SDS011;6230;52.390;10.256;2022-10-16T04:41:10;4.17;;;3.77;;
12328;SDS011;6230;52.390;10.256;2022-10-16T04:43:36;4.97;;;4.00;;
12328;SDS011;6230;52.390;10.256;2022-10-16T04:46:01;5.10;;;3.53;;
12328;SDS011;6230;52.390;10.256;2022-10-16T04:48:29;5.63;;;3.72;;
12328;SDS011;6230;52.390;10.256;2022-10-16T04:50:55;4.67;;;3.80;;
12328;SDS011;6230;52.390;10.256;2022-10-16T04:53:21;6.60;;;4.10;;
12328;SDS011;6230;52.390;10.256;2022-10-16T04:55:46;4.30;;;3.90;;
12328;SDS011;6230;52.390;10.256;2022-10-16T04:58:12;4.90;;;4.37;;
12328;SDS011;6230;52.390;10.256;2022-10-16T05:00:37;5.33;;;4.60;;
12328;SDS011;6230;52.390;10.256;2022-10-16T05:03:03;8.97;;;4.70;;
12328;SDS011;6230;52.390;10.256;2022-10-16T05:05:32;5.27;;;4.43;;
12328;SDS011;6230;52.390;10.256;2022-10-16T05:07:58;7.20;;;6.60;;
12328;SDS011;6230;52.390;10.256;2022-10-16T05:10:24;8.47;;;7.77;;
12328;SDS011;6230;52.390;10.256;2022-10-16T05:12:49;6.73;;;5.77;;
12328;SDS011;6230;52.390;10.256;2022-10-16T05:15:16;6.33;;;5.73;;
12328;SDS011;6230;52.390;10.256;2022-10-16T05:17:42;9.73;;;5.70;;
12328;SDS011;6230;52.390;10.256;2022-10-16T05:20:07;8.83;;;5.30;;
12328;SDS011;6230;52.390;10.256;2022-10-16T05:22:33;6.87;;;6.17;;
12328;SDS011;6230;52.390;10.256;2022-10-16T05:24:59;6.53;;;5.70;;
12328;SDS011;6230;52.390;10.256;2022-10-16T05:27:24;6.27;;;5.50;;
12328;SDS011;6230;52.390;10.256;2022-10-16T05:29:50;5.93;;;5.37;;
12328;SDS011;6230;52.390;10.256;2022-10-16T05:32:16;5.93;;;5.50;;
12328;SDS011;6230;52.390;10.256;2022-10-16T05:34:43;7.03;;;5.43;;
12328;SDS011;6230;52.390;10.256;2022-10-16T05:37:09;8.33;;;5.77;;
12328;SDS011;6230;52.390;10.256;2022-10-16T05:39:34;6.57;;;5.30;;
12328;SDS011;6230;52.390;10.256;2022-10-16T05:42:01;5.53;;;5.03;;
12328;SDS011;6230;52.390;10.256;2022-10-16T05:44:27;5.83;;;5.23;;
12328;SDS011;6230;52.390;10.256;2022-10-16T05:46:53;6.00;;;5.43;;
12328;SDS011;6230;52.390;10.256;2022-10-16T05:49:18;5.97;;;5.37;;
12328;SDS011;6230;52.390;10.256;2022-10-16T05:51:44;8.20;;;5.60;;
12328;SDS011;6230;52.390;10.256;2022-10-16T05:54:09;5.70;;;5.20;;
12328;SDS011;6230;52.390;10.256;2022-10-16T05:56:35;6.10;;;5.50;;
12328;SDS011;6230;52.390;10.256;2022-10-16T05:59:01;6.90;;;6.30;;
12328;SDS011;6230;52.390;10.256;2022-10-16T06:01:28;10.33;;;7.10;;
12328;SDS011;6230;52.390;10.256;2022-10-16T06:03:55;7.57;;;6.80;;
12328;SDS011;6230;52.390;10.256;2022-10-16T06:06:23;6.90;;;6.20;;
12328;SDS011;6230;52.390;10.256;2022-10-16T06:08:53;6.03;;;5.53;;
12328;SDS011;6230;52.390;10.256;2022-10-16T06:11:24;6.07;;;5.50;;
12328;SDS011;6230;52.390;10.256;2022-10-16T06:13:52;7.13;;;5.40;;
12328;SDS011;6230;52.390;10.256;2022-10-16T06:16:19;6.13;;;5.53;;
12328;SDS011;6230;52.390;10.256;2022-10-16T06:18:45;5.40;;;4.90;;
12328;SDS011;6230;52.390;10.256;2022-10-16T06:21:12;5.90;;;4.63;;
12328;SDS011;6230;52.390;10.256;2022-10-16T06:23:41;6.37;;;5.20;;
12328;SDS011;6230;52.390;10.256;2022-10-16T06:26:11;6.27;;;5.27;;
12328;SDS011;6230;52.390;10.256;2022-10-16T06:28:39;5.67;;;5.10;;
12328;SDS011;6230;52.390;10.256;2022-10-16T06:31:05;6.93;;;4.53;;
12328;SDS011;6230;52.390;10.256;2022-10-16T06:33:32;5.73;;;5.33;;
12328;SDS011;6230;52.390;10.256;2022-10-16T06:36:14;5.60;;;5.17;;
12328;SDS011;6230;52.390;10.256;2022-10-16T06:38:42;6.10;;;5.60;;
12328;SDS011;6230;52.390;10.256;2022-10-16T06:41:09;6.17;;;5.57;;
12328;SDS011;6230;52.390;10.256;2022-10-16T06:43:38;6.13;;;4.80;;
12328;SDS011;6230;52.390;10.256;2022-10-16T06:46:04;6.40;;;4.90;;
12328;SDS011;6230;52.390;10.256;2022-10-16T06:48:32;5.93;;;5.30;;
12328;SDS011;6230;52.390;10.256;2022-10-16T06:53:26;7.28;;;5.18;;
12328;SDS011;6230;52.390;10.256;2022-10-16T06:55:53;5.07;;;4.67;;
12328;SDS011;6230;52.390;10.256;2022-10-16T06:58:18;8.93;;;4.60;;
12328;SDS011;6230;52.390;10.256;2022-10-16T07:00:44;7.47;;;4.70;;
12328;SDS011;6230;52.390;10.256;2022-10-16T07:03:10;5.37;;;4.90;;
12328;SDS011;6230;52.390;10.256;2022-10-16T07:05:39;6.30;;;4.67;;
12328;SDS011;6230;52.390;10.256;2022-10-16T07:08:05;5.27;;;4.77;;
12328;SDS011;6230;52.390;10.256;2022-10-16T07:10:31;6.00;;;4.90;;
12328;SDS011;6230;52.390;10.256;2022-10-16T07:12:57;4.50;;;4.10;;
12328;SDS011;6230;52.390;10.256;2022-10-16T07:15:24;4.90;;;4.30;;
12328;SDS011;6230;52.390;10.256;2022-10-16T07:17:50;4.63;;;4.22;;
12328;SDS011;6230;52.390;10.256;2022-10-16T07:20:16;4.83;;;4.33;;
12328;SDS011;6230;52.390;10.256;2022-10-16T07:22:42;8.63;;;7.83;;
12328;SDS011;6230;52.390;10.256;2022-10-16T07:25:07;6.27;;;5.70;;
12328;SDS011;6230;52.390;10.256;2022-10-16T07:27:33;7.73;;;5.00;;
12328;SDS011;6230;52.390;10.256;2022-10-16T07:29:59;5.37;;;5.07;;
12328;SDS011;6230;52.390;10.256;2022-10-16T07:32:24;7.03;;;6.43;;
12328;SDS011;6230;52.390;10.256;2022-10-16T07:34:51;6.13;;;5.63;;
12328;SDS011;6230;52.390;10.256;2022-10-16T07:37:17;6.30;;;5.53;;
12328;SDS011;6230;52.390;10.256;2022-10-16T07:39:43;7.00;;;6.60;;
12328;SDS011;6230;52.390;10.256;2022-10-16T07:42:08;5.63;;;5.10;;
12328;SDS011;6230;52.390;10.256;2022-10-16T07:44:34;5.22;;;4.93;;
12328;SDS011;6230;52.390;10.256;2022-10-16T07:46:59;10.02;;;9.52;;
12328;SDS011;6230;52.390;10.256;2022-10-16T07:49:25;7.85;;;7.22;;
12328;SDS011;6230;52.390;10.256;2022-10-16T07:51:50;6.10;;;5.60;;
12328;SDS011;6230;52.390;10.256;2022-10-16T07:54:16;6.28;;;5.70;;
12328;SDS011;6230;52.390;10.256;2022-10-16T07:56:41;6.05;;;5.50;;
12328;SDS011;6230;52.390;10.256;2022-10-16T07:59:07;5.07;;;4.68;;
12328;SDS011;6230;52.390;10.256;2022-10-16T08:01:33;6.45;;;5.07;;
12328;SDS011;6230;52.390;10.256;2022-10-16T08:03:58;6.30;;;5.82;;
12328;SDS011;6230;52.390;10.256;2022-10-16T08:06:24;5.70;;;5.20;;
12328;SDS011;6230;52.390;10.256;2022-10-16T08:08:49;6.88;;;6.38;;
12328;SDS011;6230;52.390;10.256;2022-10-16T08:11:15;6.60;;;6.00;;
12328;SDS011;6230;52.390;10.256;2022-10-16T08:13:41;5.60;;;5.20;;
12328;SDS011;6230;52.390;10.256;2022-10-16T08:16:07;7.95;;;7.45;;
12328;SDS011;6230;52.390;10.256;2022-10-16T08:18:34;5.00;;;4.70;;
12328;SDS011;6230;52.390;10.256;2022-10-16T08:21:01;6.20;;;5.75;;
12328;SDS011;6230;52.390;10.256;2022-10-16T08:23:27;5.17;;;4.77;;
12328;SDS011;6230;52.390;10.256;2022-10-16T08:25:54;7.18;;;6.88;;
12328;SDS011;6230;52.390;10.256;2022-10-16T08:28:20;6.25;;;5.85;;
12328;SDS011;6230;52.390;10.256;2022-10-16T08:30:47;7.00;;;6.70;;
12328;SDS011;6230;52.390;10.256;2022-10-16T08:33:12;11.48;;;10.98;;
12328;SDS011;6230;52.390;10.256;2022-10-16T08:35:38;6.43;;;6.10;;
12328;SDS011;6230;52.390;10.256;2022-10-16T08:38:04;16.13;;;15.30;;
12328;SDS011;6230;52.390;10.256;2022-10-16T08:40:31;8.80;;;8.30;;
12328;SDS011;6230;52.390;10.256;2022-10-16T08:48:50;9.23;;;8.77;;
12328;SDS011;6230;52.390;10.256;2022-10-16T08:51:19;7.57;;;7.28;;
12328;SDS011;6230;52.390;10.256;2022-10-16T08:56:21;10.40;;;9.90;;
12328;SDS011;6230;52.390;10.256;2022-10-16T08:58:47;4.65;;;4.30;;
12328;SDS011;6230;52.390;10.256;2022-10-16T09:01:15;9.27;;;8.57;;
12328;SDS011;6230;52.390;10.256;2022-10-16T09:04:03;6.65;;;6.25;;
12328;SDS011;6230;52.390;10.256;2022-10-16T09:09:24;13.15;;;12.45;;
12328;SDS011;6230;52.390;10.256;2022-10-16T09:12:13;6.00;;;5.75;;
12328;SDS011;6230;52.390;10.256;2022-10-16T09:15:06;5.78;;;5.38;;
12328;SDS011;6230;52.390;10.256;2022-10-16T09:20:40;6.57;;;6.25;;
12328;SDS011;6230;52.390;10.256;2022-10-16T09:23:09;6.50;;;6.10;;
12328;SDS011;6230;52.390;10.256;2022-10-16T09:25:55;5.07;;;4.75;;
12328;SDS011;6230;52.390;10.256;2022-10-16T09:28:22;6.22;;;5.82;;
12328;SDS011;6230;52.390;10.256;2022-10-16T09:30:48;5.60;;;5.30;;
12328;SDS011;6230;52.390;10.256;2022-10-16T09:33:15;7.30;;;6.90;;
12328;SDS011;6230;52.390;10.256;2022-10-16T09:35:43;5.10;;;4.80;;
12328;SDS011;6230;52.390;10.256;2022-10-16T09:38:48;9.85;;;9.38;;
12328;SDS011;6230;52.390;10.256;2022-10-16T09:41:14;4.72;;;4.53;;
12328;SDS011;6230;52.390;10.256;2022-10-16T09:43:54;3.72;;;3.40;;
12328;SDS011;6230;52.390;10.256;2022-10-16T09:48:48;5.68;;;5.13;;
12328;SDS011;6230;52.390;10.256;2022-10-16T09:51:20;16.15;;;15.30;;
12328;SDS011;6230;52.390;10.256;2022-10-16T09:53:53;13.13;;;12.57;;
12328;SDS011;6230;52.390;10.256;2022-10-16T09:56:25;30.40;;;28.10;;
12328;SDS011;6230;52.390;10.256;2022-10-16T09:58:51;7.03;;;6.63;;
12328;SDS011;6230;52.390;10.256;2022-10-16T10:01:18;5.43;;;5.22;;
12328;SDS011;6230;52.390;10.256;2022-10-16T10:03:45;3.55;;;3.28;;
12328;SDS011;6230;52.390;10.256;2022-10-16T10:09:47;10.20;;;9.57;;
12328;SDS011;6230;52.390;10.256;2022-10-16T10:11:51;5.22;;;4.93;;
12328;SDS011;6230;52.390;10.256;2022-10-16T10:14:21;4.30;;;4.10;;
12328;SDS011;6230;52.390;10.256;2022-10-16T10:19:30;8.85;;;8.38;;
12328;SDS011;6230;52.390;10.256;2022-10-16T10:22:16;5.82;;;5.45;;
12328;SDS011;6230;52.390;10.256;2022-10-16T10:24:43;4.95;;;4.53;;
12328;SDS011;6230;52.390;10.256;2022-10-16T10:27:19;4.80;;;4.50;;
12328;SDS011;6230;52.390;10.256;2022-10-16T10:34:51;7.55;;;7.00;;
12328;SDS011;6230;52.390;10.256;2022-10-16T10:40:23;6.05;;;5.75;;
12328;SDS011;6230;52.390;10.256;2022-10-16T10:43:17;11.25;;;10.75;;
12328;SDS011;6230;52.390;10.256;2022-10-16T10:46:05;7.45;;;7.15;;
12328;SDS011;6230;52.390;10.256;2022-10-16T10:48:58;6.40;;;5.95;;
12328;SDS011;6230;52.390;10.256;2022-10-16T10:51:38;6.05;;;5.43;;
12328;SDS011;6230;52.390;10.256;2022-10-16T10:54:36;8.18;;;7.70;;
12328;SDS011;6230;52.390;10.256;2022-10-16T10:57:09;7.00;;;6.60;;
12328;SDS011;6230;52.390;10.256;2022-10-16T10:59:56;3.03;;;2.83;;
12328;SDS011;6230;52.390;10.256;2022-10-16T11:02:37;4.32;;;2.90;;
12328;SDS011;6230;52.390;10.256;2022-10-16T11:05:18;2.25;;;2.15;;
12328;SDS011;6230;52.390;10.256;2022-10-16T11:08:07;3.42;;;2.95;;
12328;SDS011;6230;52.390;10.256;2022-10-16T11:15:51;3.78;;;2.45;;
12328;SDS011;6230;52.390;10.256;2022-10-16T11:18:23;3.25;;;1.98;;
12328;SDS011;6230;52.390;10.256;2022-10-16T11:21:06;2.47;;;2.28;;
12328;SDS011;6230;52.390;10.256;2022-10-16T11:23:37;4.28;;;2.10;;
12328;SDS011;6230;52.390;10.256;2022-10-16T11:26:05;3.40;;;2.08;;
12328;SDS011;6230;52.390;10.256;2022-10-16T11:33:55;3.67;;;3.42;;
12328;SDS011;6230;52.390;10.256;2022-10-16T11:39:09;2.47;;;2.30;;
12328;SDS011;6230;52.390;10.256;2022-10-16T11:41:56;3.10;;;1.95;;
12328;SDS011;6230;52.390;10.256;2022-10-16T11:47:30;5.10;;;2.97;;
12328;SDS011;6230;52.390;10.256;2022-10-16T11:50:03;2.92;;;2.72;;
12328;SDS011;6230;52.390;10.256;2022-10-16T11:52:55;3.55;;;2.17;;
12328;SDS011;6230;52.390;10.256;2022-10-16T11:55:38;4.25;;;2.67;;
12328;SDS011;6230;52.390;10.256;2022-10-16T11:58:06;3.25;;;2.85;;
12328;SDS011;6230;52.390;10.256;2022-10-16T12:00:58;3.60;;;3.40;;
12328;SDS011;6230;52.390;10.256;2022-10-16T12:06:12;11.15;;;10.63;;
12328;SDS011;6230;52.390;10.256;2022-10-16T12:08:45;4.60;;;4.25;;
12328;SDS011;6230;52.390;10.256;2022-10-16T12:11:31;5.82;;;5.40;;
12328;SDS011;6230;52.390;10.256;2022-10-16T12:14:07;4.88;;;4.55;;
12328;SDS011;6230;52.390;10.256;2022-10-16T12:16:37;6.47;;;6.07;;
12328;SDS011;6230;52.390;10.256;2022-10-16T12:19:25;5.78;;;5.38;;
12328;SDS011;6230;52.390;10.256;2022-10-16T12:21:52;9.23;;;8.75;;
12328;SDS011;6230;52.390;10.256;2022-10-16T12:24:22;18.40;;;17.27;;
12328;SDS011;6230;52.390;10.256;2022-10-16T12:26:58;14.90;;;14.07;;
12328;SDS011;6230;52.390;10.256;2022-10-16T12:29:35;12.00;;;11.50;;
12328;SDS011;6230;52.390;10.256;2022-10-16T12:32:19;23.27;;;22.25;;
12328;SDS011;6230;52.390;10.256;2022-10-16T12:35:01;14.20;;;13.40;;
12328;SDS011;6230;52.390;10.256;2022-10-16T12:37:31;12.48;;;11.80;;
12328;SDS011;6230;52.390;10.256;2022-10-16T12:40:11;9.98;;;9.55;;
12328;SDS011;6230;52.390;10.256;2022-10-16T12:42:39;16.13;;;15.43;;
12328;SDS011;6230;52.390;10.256;2022-10-16T12:47:51;23.67;;;22.52;;
12328;SDS011;6230;52.390;10.256;2022-10-16T12:50:37;28.80;;;27.42;;
12328;SDS011;6230;52.390;10.256;2022-10-16T12:53:19;14.55;;;13.45;;
12328;SDS011;6230;52.390;10.256;2022-10-16T12:55:50;10.32;;;9.73;;
12328;SDS011;6230;52.390;10.256;2022-10-16T12:58:30;8.75;;;8.32;;
12328;SDS011;6230;52.390;10.256;2022-10-16T13:04:03;22.70;;;21.73;;
12328;SDS011;6230;52.390;10.256;2022-10-16T13:13:05;4.82;;;4.63;;
12328;SDS011;6230;52.390;10.256;2022-10-16T13:15:18;5.90;;;5.50;;
12328;SDS011;6230;52.390;10.256;2022-10-16T13:17:54;5.60;;;5.38;;
12328;SDS011;6230;52.390;10.256;2022-10-16T13:20:34;22.60;;;21.38;;
12328;SDS011;6230;52.390;10.256;2022-10-16T13:26:06;8.23;;;7.63;;
12328;SDS011;6230;52.390;10.256;2022-10-16T13:28:57;8.48;;;8.07;;
12328;SDS011;6230;52.390;10.256;2022-10-16T13:31:25;23.23;;;22.23;;
12328;SDS011;6230;52.390;10.256;2022-10-16T13:33:51;16.33;;;15.63;;
12328;SDS011;6230;52.390;10.256;2022-10-16T13:36:21;24.88;;;23.88;;
12328;SDS011;6230;52.390;10.256;2022-10-16T13:38:58;17.75;;;16.95;;
12328;SDS011;6230;52.390;10.256;2022-10-16T13:41:43;17.75;;;16.85;;
12328;SDS011;6230;52.390;10.256;2022-10-16T13:44:12;13.77;;;13.15;;
12328;SDS011;6230;52.390;10.256;2022-10-16T13:46:45;18.92;;;17.88;;
12328;SDS011;6230;52.390;10.256;2022-10-16T13:49:12;14.63;;;14.02;;
12328;SDS011;6230;52.390;10.256;2022-10-16T13:51:39;29.50;;;28.13;;
12328;SDS011;6230;52.390;10.256;2022-10-16T13:54:07;54.42;;;52.13;;
12328;SDS011;6230;52.390;10.256;2022-10-16T13:56:38;18.95;;;18.10;;
12328;SDS011;6230;52.390;10.256;2022-10-16T13:59:06;18.45;;;17.65;;
12328;SDS011;6230;52.390;10.256;2022-10-16T14:01:47;24.02;;;23.02;;
12328;SDS011;6230;52.390;10.256;2022-10-16T14:04:13;23.08;;;22.10;;
12328;SDS011;6230;52.390;10.256;2022-10-16T14:06:40;26.55;;;25.23;;
12328;SDS011;6230;52.390;10.256;2022-10-16T14:11:50;25.00;;;23.98;;
12328;SDS011;6230;52.390;10.256;2022-10-16T14:14:19;20.60;;;19.52;;
12328;SDS011;6230;52.390;10.256;2022-10-16T14:16:45;23.25;;;22.25;;
12328;SDS011;6230;52.390;10.256;2022-10-16T14:19:22;22.65;;;21.73;;
12328;SDS011;6230;52.390;10.256;2022-10-16T14:21:52;14.50;;;13.90;;
12328;SDS011;6230;52.390;10.256;2022-10-16T14:26:59;18.02;;;17.25;;
12328;SDS011;6230;52.390;10.256;2022-10-16T14:29:26;18.42;;;17.63;;
12328;SDS011;6230;52.390;10.256;2022-10-16T14:31:58;13.88;;;13.30;;
12328;SDS011;6230;52.390;10.256;2022-10-16T14:34:30;25.23;;;24.13;;
12328;SDS011;6230;52.390;10.256;2022-10-16T14:39:49;15.85;;;15.15;;
12328;SDS011;6230;52.390;10.256;2022-10-16T14:42:16;34.42;;;32.80;;
12328;SDS011;6230;52.390;10.256;2022-10-16T14:44:44;9.82;;;9.32;;
12328;SDS011;6230;52.390;10.256;2022-10-16T14:47:14;16.15;;;15.27;;
12328;SDS011;6230;52.390;10.256;2022-10-16T14:49:47;18.58;;;17.77;;
12328;SDS011;6230;52.390;10.256;2022-10-16T14:52:13;19.80;;;18.88;;
12328;SDS011;6230;52.390;10.256;2022-10-16T14:54:39;16.85;;;16.15;;
12328;SDS011;6230;52.390;10.256;2022-10-16T14:57:05;15.35;;;14.57;;
12328;SDS011;6230;52.390;10.256;2022-10-16T14:59:40;14.90;;;14.07;;
12328;SDS011;6230;52.390;10.256;2022-10-16T15:02:30;9.38;;;8.75;;
12328;SDS011;6230;52.390;10.256;2022-10-16T15:04:57;7.50;;;7.20;;
12328;SDS011;6230;52.390;10.256;2022-10-16T15:07:23;8.18;;;7.65;;
12328;SDS011;6230;52.390;10.256;2022-10-16T15:09:49;6.65;;;6.25;;
12328;SDS011;6230;52.390;10.256;2022-10-16T15:12:16;8.18;;;7.78;;
12328;SDS011;6230;52.390;10.256;2022-10-16T15:14:42;7.05;;;6.68;;
12328;SDS011;6230;52.390;10.256;2022-10-16T15:17:10;6.35;;;5.82;;
12328;SDS011;6230;52.390;10.256;2022-10-16T15:19:36;7.45;;;6.95;;
12328;SDS011;6230;52.390;10.256;2022-10-16T15:22:02;6.88;;;6.38;;
12328;SDS011;6230;52.390;10.256;2022-10-16T15:24:28;8.90;;;8.35;;
12328;SDS011;6230;52.390;10.256;2022-10-16T15:26:53;7.47;;;6.97;;
12328;SDS011;6230;52.390;10.256;2022-10-16T15:29:19;6.15;;;5.85;;
12328;SDS011;6230;52.390;10.256;2022-10-16T15:31:44;6.45;;;6.15;;
12328;SDS011;6230;52.390;10.256;2022-10-16T15:34:12;8.05;;;7.55;;
12328;SDS011;6230;52.390;10.256;2022-10-16T15:36:38;7.43;;;7.03;;
12328;SDS011;6230;52.390;10.256;2022-10-16T15:39:05;9.68;;;9.18;;
12328;SDS011;6230;52.390;10.256;2022-10-16T15:41:38;8.30;;;7.90;;
12328;SDS011;6230;52.390;10.256;2022-10-16T15:44:04;6.47;;;5.88;;
12328;SDS011;6230;52.390;10.256;2022-10-16T15:46:29;5.90;;;5.60;;
12328;SDS011;6230;52.390;10.256;2022-10-16T15:48:56;7.43;;;7.13;;
12328;SDS011;6230;52.390;10.256;2022-10-16T15:51:23;11.38;;;10.38;;
12328;SDS011;6230;52.390;10.256;2022-10-16T15:53:49;11.73;;;10.77;;
12328;SDS011;6230;52.390;10.256;2022-10-16T15:56:16;15.10;;;13.88;;
12328;SDS011;6230;52.390;10.256;2022-10-16T15:58:42;11.90;;;11.10;;
12328;SDS011;6230;52.390;10.256;2022-10-16T16:01:08;9.13;;;8.48;;
12328;SDS011;6230;52.390;10.256;2022-10-16T16:03:37;7.70;;;7.20;;
12328;SDS011;6230;52.390;10.256;2022-10-16T16:06:05;8.20;;;7.57;;
12328;SDS011;6230;52.390;10.256;2022-10-16T16:08:32;8.23;;;7.82;;
12328;SDS011;6230;52.390;10.256;2022-10-16T16:11:06;7.88;;;7.47;;
12328;SDS011;6230;52.390;10.256;2022-10-16T16:13:33;7.53;;;6.97;;
12328;SDS011;6230;52.390;10.256;2022-10-16T16:16:01;6.72;;;6.20;;
12328;SDS011;6230;52.390;10.256;2022-10-16T16:18:31;8.15;;;7.65;;
12328;SDS011;6230;52.390;10.256;2022-10-16T16:20:56;8.43;;;7.72;;
12328;SDS011;6230;52.390;10.256;2022-10-16T16:23:22;6.32;;;5.78;;
12328;SDS011;6230;52.390;10.256;2022-10-16T16:26:04;5.50;;;5.18;;